Time,TemperatureF,DewpointF,PressureIn,WindDirection,WindDirectionDegrees,WindSpeedMPH,WindSpeedGustMPH,Humidity,HourlyPrecipIn,Conditions,Clouds,dailyrainin,SoftwareType,DateUTC
2013-10-29 00:01:00,40.1,32.4,30.19,WNW,293,0.0,0.0,74,0.00,,,0.00,WUHU216HW,2013-10-29 04:01:00,
2013-10-29 00:06:00,40.1,32.7,30.20,WNW,293,0.0,0.0,75,0.00,,,0.00,WUHU216HW,2013-10-29 04:06:00,
2013-10-29 00:11:00,39.9,32.5,30.20,WNW,293,0.0,0.0,75,0.00,,,0.00,WUHU216HW,2013-10-29 04:11:00,
2013-10-29 00:16:00,39.7,32.4,30.19,WNW,293,0.0,0.0,75,0.00,,,0.00,WUHU216HW,2013-10-29 04:16:00,
2013-10-29 00:21:00,39.7,32.4,30.19,WNW,293,0.0,0.0,75,0.00,,,0.00,WUHU216HW,2013-10-29 04:21:00,
2013-10-29 00:26:00,39.5,32.2,30.20,WNW,293,0.0,0.0,75,0.00,,,0.00,WUHU216HW,2013-10-29 04:26:00,
2013-10-29 00:31:00,39.3,32.4,30.20,WNW,293,0.0,0.0,76,0.00,,,0.00,WUHU216HW,2013-10-29 04:31:00,
2013-10-29 00:36:00,39.3,32.4,30.20,WNW,293,0.0,0.0,76,0.00,,,0.00,WUHU216HW,2013-10-29 04:36:00,
2013-10-29 00:41:00,39.2,32.2,30.20,WNW,293,0.0,0.0,76,0.00,,,0.00,WUHU216HW,2013-10-29 04:41:00,
2013-10-29 00:46:00,39.0,32.0,30.20,WNW,293,0.0,0.0,76,0.00,,,0.00,WUHU216HW,2013-10-29 04:46:00,
2013-10-29 00:51:00,39.0,32.0,30.20,WNW,293,0.0,0.0,76,0.00,,,0.00,WUHU216HW,2013-10-29 04:51:00,
2013-10-29 00:56:00,38.8,31.8,30.20,WNW,293,0.0,0.0,76,0.00,,,0.00,WUHU216HW,2013-10-29 04:56:00,
2013-10-29 01:01:00,38.8,31.8,30.21,WNW,293,0.0,0.0,76,0.00,,,0.00,WUHU216HW,2013-10-29 05:01:00,
2013-10-29 01:07:00,38.8,31.8,30.20,WNW,293,0.0,0.0,76,0.00,,,0.00,WUHU216HW,2013-10-29 05:07:00,
2013-10-29 01:12:00,38.4,31.5,30.20,WNW,293,0.0,0.0,76,0.00,,,0.00,WUHU216HW,2013-10-29 05:12:00,
2013-10-29 01:17:00,38.4,31.8,30.20,WNW,293,0.0,0.0,77,0.00,,,0.00,WUHU216HW,2013-10-29 05:17:00,
2013-10-29 01:22:00,38.4,31.8,30.20,WNW,293,0.0,0.0,77,0.00,,,0.00,WUHU216HW,2013-10-29 05:22:00,
2013-10-29 01:27:00,38.3,31.7,30.20,WNW,293,0.0,0.0,77,0.00,,,0.00,WUHU216HW,2013-10-29 05:27:00,
2013-10-29 01:32:00,38.1,31.5,30.20,WNW,293,0.0,0.0,77,0.00,,,0.00,WUHU216HW,2013-10-29 05:32:00,
2013-10-29 01:37:00,38.1,31.5,30.20,WNW,293,0.0,0.0,77,0.00,,,0.00,WUHU216HW,2013-10-29 05:37:00,
2013-10-29 01:42:00,38.1,31.5,30.20,WNW,293,0.0,0.0,77,0.00,,,0.00,WUHU216HW,2013-10-29 05:42:00,
2013-10-29 01:47:00,38.1,31.5,30.20,WNW,293,0.0,0.0,77,0.00,,,0.00,WUHU216HW,2013-10-29 05:47:00,
2013-10-29 01:52:00,38.1,31.5,30.20,WNW,293,0.0,0.0,77,0.00,,,0.00,WUHU216HW,2013-10-29 05:52:00,
2013-10-29 01:57:00,37.9,31.6,30.20,WNW,293,0.0,0.0,78,0.00,,,0.00,WUHU216HW,2013-10-29 05:57:00,
2013-10-29 02:02:00,37.9,31.6,30.20,WNW,293,0.0,0.0,78,0.00,,,0.00,WUHU216HW,2013-10-29 06:02:00,
2013-10-29 02:07:00,37.9,31.6,30.20,WNW,293,0.0,0.0,78,0.00,,,0.00,WUHU216HW,2013-10-29 06:07:00,
2013-10-29 02:12:00,37.9,31.6,30.20,WNW,293,0.0,0.0,78,0.00,,,0.00,WUHU216HW,2013-10-29 06:12:00,
2013-10-29 02:17:00,37.9,31.6,30.20,WNW,293,0.0,0.0,78,0.00,,,0.00,WUHU216HW,2013-10-29 06:17:00,
2013-10-29 02:22:00,37.9,31.6,30.20,WNW,293,0.0,0.0,78,0.00,,,0.00,WUHU216HW,2013-10-29 06:22:00,
2013-10-29 02:27:00,37.9,31.6,30.20,WNW,293,0.0,0.0,78,0.00,,,0.00,WUHU216HW,2013-10-29 06:27:00,
2013-10-29 02:32:00,37.9,31.6,30.20,WNW,293,0.0,0.0,78,0.00,,,0.00,WUHU216HW,2013-10-29 06:32:00,
2013-10-29 02:37:00,37.9,32.0,30.20,WNW,293,0.0,0.0,79,0.00,,,0.00,WUHU216HW,2013-10-29 06:37:00,
2013-10-29 02:42:00,37.7,31.8,30.21,WNW,293,0.0,0.0,79,0.00,,,0.00,WUHU216HW,2013-10-29 06:42:00,
2013-10-29 02:47:00,37.9,32.0,30.20,WNW,293,0.0,0.0,79,0.00,,,0.00,WUHU216HW,2013-10-29 06:47:00,
2013-10-29 02:52:00,37.7,31.8,30.21,WNW,293,0.0,0.0,79,0.00,,,0.00,WUHU216HW,2013-10-29 06:52:00,
2013-10-29 02:57:00,37.7,31.5,30.21,WNW,293,0.0,0.0,78,0.00,,,0.00,WUHU216HW,2013-10-29 06:57:00,
2013-10-29 03:02:00,37.7,31.8,30.21,WNW,293,0.0,0.0,79,0.00,,,0.00,WUHU216HW,2013-10-29 07:02:00,
2013-10-29 03:07:00,37.7,31.8,30.21,WNW,293,0.0,0.0,79,0.00,,,0.00,WUHU216HW,2013-10-29 07:07:00,
2013-10-29 03:12:00,37.5,31.6,30.21,WNW,293,0.0,0.0,79,0.00,,,0.00,WUHU216HW,2013-10-29 07:12:00,
2013-10-29 03:17:00,37.5,31.6,30.21,WNW,293,0.0,0.0,79,0.00,,,0.00,WUHU216HW,2013-10-29 07:17:00,
2013-10-29 03:22:00,37.5,31.6,30.21,WNW,293,0.0,0.0,79,0.00,,,0.00,WUHU216HW,2013-10-29 07:22:00,
2013-10-29 03:27:00,37.5,31.6,30.21,WNW,293,0.0,0.0,79,0.00,,,0.00,WUHU216HW,2013-10-29 07:27:00,
2013-10-29 03:32:00,37.5,31.6,30.21,WNW,293,0.0,0.0,79,0.00,,,0.00,WUHU216HW,2013-10-29 07:32:00,
2013-10-29 03:37:00,37.5,32.0,30.20,WNW,293,0.0,0.0,80,0.00,,,0.00,WUHU216HW,2013-10-29 07:37:00,
2013-10-29 03:42:00,37.5,32.0,30.20,WNW,293,0.0,0.0,80,0.00,,,0.00,WUHU216HW,2013-10-29 07:42:00,
2013-10-29 03:47:00,37.5,32.0,30.20,WNW,293,0.0,0.0,80,0.00,,,0.00,WUHU216HW,2013-10-29 07:47:00,
2013-10-29 03:52:00,37.5,32.0,30.21,WNW,293,0.0,0.0,80,0.00,,,0.00,WUHU216HW,2013-10-29 07:52:00,
2013-10-29 03:57:00,37.5,32.0,30.21,WNW,293,0.0,0.0,80,0.00,,,0.00,WUHU216HW,2013-10-29 07:57:00,
2013-10-29 04:02:00,37.5,32.0,30.21,WNW,293,0.0,0.0,80,0.00,,,0.00,WUHU216HW,2013-10-29 08:02:00,
2013-10-29 04:07:00,37.4,31.8,30.21,WNW,293,0.0,0.0,80,0.00,,,0.00,WUHU216HW,2013-10-29 08:07:00,
2013-10-29 04:12:00,37.4,31.8,30.21,WNW,293,0.0,0.0,80,0.00,,,0.00,WUHU216HW,2013-10-29 08:12:00,
2013-10-29 04:17:00,37.4,31.8,30.21,WNW,293,0.0,0.0,80,0.00,,,0.00,WUHU216HW,2013-10-29 08:17:00,
2013-10-29 04:22:00,37.4,31.8,30.21,WNW,293,0.0,0.0,80,0.00,,,0.00,WUHU216HW,2013-10-29 08:22:00,
2013-10-29 04:27:00,37.2,31.6,30.21,WNW,293,0.0,0.0,80,0.00,,,0.00,WUHU216HW,2013-10-29 08:27:00,
2013-10-29 04:32:00,37.2,31.6,30.21,WNW,293,0.0,0.0,80,0.00,,,0.00,WUHU216HW,2013-10-29 08:32:00,
2013-10-29 04:37:00,37.2,31.9,30.21,WNW,293,0.0,0.0,81,0.00,,,0.00,WUHU216HW,2013-10-29 08:37:00,
2013-10-29 04:42:00,37.2,31.9,30.20,WNW,293,0.0,0.0,81,0.00,,,0.00,WUHU216HW,2013-10-29 08:42:00,
2013-10-29 04:47:00,37.2,31.9,30.20,WNW,293,0.0,0.0,81,0.00,,,0.00,WUHU216HW,2013-10-29 08:47:00,
2013-10-29 04:52:00,37.2,31.9,30.20,WNW,293,0.0,0.0,81,0.00,,,0.00,WUHU216HW,2013-10-29 08:52:00,
2013-10-29 04:57:00,37.2,31.9,30.20,WNW,293,0.0,0.0,81,0.00,,,0.00,WUHU216HW,2013-10-29 08:57:00,
2013-10-29 05:02:00,37.2,31.9,30.20,WNW,293,0.0,0.0,81,0.00,,,0.00,WUHU216HW,2013-10-29 09:02:00,
2013-10-29 05:07:00,37.2,31.9,30.20,WNW,293,0.0,0.0,81,0.00,,,0.00,WUHU216HW,2013-10-29 09:07:00,
2013-10-29 05:12:00,37.0,31.7,30.20,WNW,293,0.0,0.0,81,0.00,,,0.00,WUHU216HW,2013-10-29 09:12:00,
2013-10-29 05:17:00,37.0,31.7,30.20,WNW,293,0.0,0.0,81,0.00,,,0.00,WUHU216HW,2013-10-29 09:17:00,
2013-10-29 05:22:00,37.0,31.7,30.20,WNW,293,0.0,0.0,81,0.00,,,0.00,WUHU216HW,2013-10-29 09:22:00,
2013-10-29 05:27:00,36.8,31.5,30.20,WNW,293,0.0,0.0,81,0.00,,,0.00,WUHU216HW,2013-10-29 09:27:00,
2013-10-29 05:32:00,36.6,31.3,30.20,WNW,293,0.0,0.0,81,0.00,,,0.00,WUHU216HW,2013-10-29 09:32:00,
2013-10-29 05:37:00,36.6,31.3,30.20,WNW,293,0.0,0.0,81,0.00,,,0.00,WUHU216HW,2013-10-29 09:37:00,
2013-10-29 05:42:00,36.5,31.2,30.21,WNW,293,0.0,0.0,81,0.00,,,0.00,WUHU216HW,2013-10-29 09:42:00,
2013-10-29 05:47:00,36.5,31.2,30.21,WNW,293,0.0,0.0,81,0.00,,,0.00,WUHU216HW,2013-10-29 09:47:00,
2013-10-29 05:52:00,36.3,31.0,30.21,WNW,293,0.0,0.0,81,0.00,,,0.00,WUHU216HW,2013-10-29 09:52:00,
2013-10-29 05:57:00,36.3,31.0,30.21,WNW,293,0.0,0.0,81,0.00,,,0.00,WUHU216HW,2013-10-29 09:57:00,
2013-10-29 06:02:00,36.3,31.0,30.21,WNW,293,0.0,0.0,81,0.00,,,0.00,WUHU216HW,2013-10-29 10:02:00,
2013-10-29 06:07:00,36.3,31.0,30.21,WNW,293,0.0,0.0,81,0.00,,,0.00,WUHU216HW,2013-10-29 10:07:00,
2013-10-29 06:12:00,36.1,30.8,30.21,WNW,293,0.0,0.0,81,0.00,,,0.00,WUHU216HW,2013-10-29 10:12:00,
2013-10-29 06:17:00,36.1,30.8,30.22,WNW,293,0.0,0.0,81,0.00,,,0.00,WUHU216HW,2013-10-29 10:17:00,
2013-10-29 06:22:00,36.1,30.8,30.22,WNW,293,0.0,0.0,81,0.00,,,0.00,WUHU216HW,2013-10-29 10:22:00,
2013-10-29 06:27:00,36.1,30.8,30.22,WNW,293,0.0,0.0,81,0.00,,,0.00,WUHU216HW,2013-10-29 10:27:00,
2013-10-29 06:32:00,35.9,30.9,30.22,WNW,293,0.0,0.0,82,0.00,,,0.00,WUHU216HW,2013-10-29 10:32:00,
2013-10-29 06:37:00,35.9,30.9,30.22,WNW,293,0.0,0.0,82,0.00,,,0.00,WUHU216HW,2013-10-29 10:37:00,
2013-10-29 06:42:00,35.7,30.7,30.22,WNW,293,0.0,0.0,82,0.00,,,0.00,WUHU216HW,2013-10-29 10:42:00,
2013-10-29 06:47:00,35.7,30.7,30.22,WNW,293,0.0,0.0,82,0.00,,,0.00,WUHU216HW,2013-10-29 10:47:00,
2013-10-29 06:52:00,35.7,30.7,30.22,WNW,293,0.0,0.0,82,0.00,,,0.00,WUHU216HW,2013-10-29 10:52:00,
2013-10-29 06:57:00,35.7,30.7,30.22,WNW,293,0.0,0.0,82,0.00,,,0.00,WUHU216HW,2013-10-29 10:57:00,
2013-10-29 07:02:00,35.6,30.5,30.22,WNW,293,0.0,0.0,82,0.00,,,0.00,WUHU216HW,2013-10-29 11:02:00,
2013-10-29 07:07:00,35.4,30.4,30.22,WNW,293,0.0,0.0,82,0.00,,,0.00,WUHU216HW,2013-10-29 11:07:00,
2013-10-29 07:12:00,35.4,30.4,30.22,WNW,293,0.0,0.0,82,0.00,,,0.00,WUHU216HW,2013-10-29 11:12:00,
2013-10-29 07:17:00,35.4,30.4,30.22,WNW,293,0.0,0.0,82,0.00,,,0.00,WUHU216HW,2013-10-29 11:17:00,
2013-10-29 07:22:00,35.4,30.4,30.22,WNW,293,0.0,0.0,82,0.00,,,0.00,WUHU216HW,2013-10-29 11:22:00,
2013-10-29 07:27:00,35.4,30.4,30.22,WNW,293,0.0,0.0,82,0.00,,,0.00,WUHU216HW,2013-10-29 11:27:00,
2013-10-29 07:32:00,35.2,30.2,30.22,WNW,293,0.0,0.0,82,0.00,,,0.00,WUHU216HW,2013-10-29 11:32:00,
2013-10-29 07:37:00,35.2,30.2,30.22,WNW,293,0.0,0.0,82,0.00,,,0.00,WUHU216HW,2013-10-29 11:37:00,
2013-10-29 07:42:00,35.2,30.2,30.22,WNW,293,0.0,0.0,82,0.00,,,0.00,WUHU216HW,2013-10-29 11:42:00,
2013-10-29 07:47:00,35.2,30.2,30.22,WNW,293,0.0,0.0,82,0.00,,,0.00,WUHU216HW,2013-10-29 11:47:00,
2013-10-29 07:52:00,35.2,30.2,30.22,WNW,293,0.0,0.0,82,0.00,,,0.00,WUHU216HW,2013-10-29 11:52:00,
2013-10-29 07:57:00,35.0,30.0,30.22,WNW,293,0.0,0.0,82,0.00,,,0.00,WUHU216HW,2013-10-29 11:57:00,
2013-10-29 08:02:00,35.0,30.0,30.22,WNW,293,0.0,0.0,82,0.00,,,0.00,WUHU216HW,2013-10-29 12:02:00,
2013-10-29 08:07:00,34.8,29.8,30.22,WNW,293,0.0,0.0,82,0.00,,,0.00,WUHU216HW,2013-10-29 12:07:00,
2013-10-29 08:12:00,34.8,29.8,30.22,WNW,293,0.0,0.0,82,0.00,,,0.00,WUHU216HW,2013-10-29 12:12:00,
2013-10-29 08:17:00,34.8,29.8,30.22,WNW,293,0.0,0.0,82,0.00,,,0.00,WUHU216HW,2013-10-29 12:17:00,
2013-10-29 08:22:00,34.8,30.1,30.22,WNW,293,0.0,0.0,83,0.00,,,0.00,WUHU216HW,2013-10-29 12:22:00,
2013-10-29 08:27:00,34.8,30.1,30.22,WNW,293,0.0,0.0,83,0.00,,,0.00,WUHU216HW,2013-10-29 12:27:00,
2013-10-29 08:32:00,34.8,30.1,30.21,WNW,293,0.0,0.0,83,0.00,,,0.00,WUHU216HW,2013-10-29 12:32:00,
2013-10-29 08:37:00,34.8,30.1,30.21,WNW,293,0.0,0.0,83,0.00,,,0.00,WUHU216HW,2013-10-29 12:37:00,
2013-10-29 08:42:00,34.8,30.1,30.21,WNW,293,0.0,0.0,83,0.00,,,0.00,WUHU216HW,2013-10-29 12:42:00,
2013-10-29 08:47:00,35.0,30.3,30.21,WNW,293,0.0,0.0,83,0.00,,,0.00,WUHU216HW,2013-10-29 12:47:00,
2013-10-29 08:52:00,35.2,30.5,30.22,WNW,293,0.0,0.0,83,0.00,,,0.00,WUHU216HW,2013-10-29 12:52:00,
2013-10-29 08:57:00,35.4,30.7,30.22,WNW,293,0.0,0.0,83,0.00,,,0.00,WUHU216HW,2013-10-29 12:57:00,
2013-10-29 09:02:00,35.4,30.7,30.22,WNW,293,0.0,0.0,83,0.00,,,0.00,WUHU216HW,2013-10-29 13:02:00,
2013-10-29 09:07:00,35.4,30.7,30.23,WNW,293,0.0,0.0,83,0.00,,,0.00,WUHU216HW,2013-10-29 13:07:00,
2013-10-29 09:12:00,35.7,31.0,30.23,WNW,293,0.0,0.0,83,0.00,,,0.00,WUHU216HW,2013-10-29 13:12:00,
2013-10-29 09:17:00,35.7,31.0,30.23,WNW,293,0.0,0.0,83,0.00,,,0.00,WUHU216HW,2013-10-29 13:17:00,
2013-10-29 09:22:00,36.1,31.4,30.23,WNW,293,0.0,0.0,83,0.00,,,0.00,WUHU216HW,2013-10-29 13:22:00,
2013-10-29 09:27:00,36.3,31.8,30.23,WNW,293,0.0,0.0,84,0.00,,,0.00,WUHU216HW,2013-10-29 13:27:00,
2013-10-29 09:32:00,36.3,31.8,30.24,WNW,293,0.0,0.0,84,0.00,,,0.00,WUHU216HW,2013-10-29 13:32:00,
2013-10-29 09:37:00,36.6,32.2,30.24,WNW,293,0.0,0.0,84,0.00,,,0.00,WUHU216HW,2013-10-29 13:37:00,
2013-10-29 09:42:00,37.2,32.7,30.24,WNW,293,0.0,0.0,84,0.00,,,0.00,WUHU216HW,2013-10-29 13:42:00,
2013-10-29 09:47:00,37.2,32.7,30.24,WNW,293,0.0,0.0,84,0.00,,,0.00,WUHU216HW,2013-10-29 13:47:00,
2013-10-29 09:52:00,37.5,33.1,30.24,WNW,293,0.0,0.0,84,0.00,,,0.00,WUHU216HW,2013-10-29 13:52:00,
2013-10-29 09:57:00,37.9,33.5,30.24,WNW,293,0.0,0.0,84,0.00,,,0.00,WUHU216HW,2013-10-29 13:57:00,
2013-10-29 10:02:00,38.1,33.6,30.24,WNW,293,0.0,0.0,84,0.00,,,0.00,WUHU216HW,2013-10-29 14:02:00,
2013-10-29 10:07:00,38.4,34.0,30.25,WNW,293,0.0,0.0,84,0.00,,,0.00,WUHU216HW,2013-10-29 14:07:00,
2013-10-29 10:12:00,38.8,34.4,30.24,WNW,293,0.0,0.0,84,0.00,,,0.00,WUHU216HW,2013-10-29 14:12:00,
2013-10-29 10:17:00,39.0,34.5,30.24,WNW,293,0.0,0.0,84,0.00,,,0.00,WUHU216HW,2013-10-29 14:17:00,
2013-10-29 10:22:00,39.3,34.9,30.24,WNW,293,0.0,0.0,84,0.00,,,0.00,WUHU216HW,2013-10-29 14:22:00,
2013-10-29 10:27:00,39.7,35.2,30.24,WNW,293,0.0,0.0,84,0.00,,,0.00,WUHU216HW,2013-10-29 14:27:00,
2013-10-29 10:32:00,39.9,35.6,30.24,WNW,293,0.0,0.0,84,0.00,,,0.00,WUHU216HW,2013-10-29 14:32:00,
2013-10-29 10:37:00,40.4,35.9,30.24,WNW,293,0.0,0.0,84,0.00,,,0.00,WUHU216HW,2013-10-29 14:37:00,
2013-10-29 10:42:00,40.8,36.2,30.24,WNW,293,0.0,0.0,84,0.00,,,0.00,WUHU216HW,2013-10-29 14:42:00,
2013-10-29 10:47:00,41.1,36.9,30.24,WNW,293,0.0,0.0,85,0.00,,,0.00,WUHU216HW,2013-10-29 14:47:00,
2013-10-29 10:52:00,41.5,37.3,30.24,WNW,293,0.0,0.0,85,0.00,,,0.00,WUHU216HW,2013-10-29 14:52:00,
2013-10-29 10:57:00,41.7,37.4,30.24,WNW,293,0.0,0.0,85,0.00,,,0.00,WUHU216HW,2013-10-29 14:57:00,
2013-10-29 11:02:00,42.0,37.5,30.24,WNW,293,0.0,0.0,84,0.00,,,0.00,WUHU216HW,2013-10-29 15:02:00,
2013-10-29 11:07:00,42.4,37.9,30.24,WNW,293,0.0,0.0,84,0.00,,,0.00,WUHU216HW,2013-10-29 15:07:00,
2013-10-29 11:12:00,42.6,38.0,30.23,WNW,293,0.0,0.0,84,0.00,,,0.00,WUHU216HW,2013-10-29 15:12:00,
2013-10-29 11:17:00,42.9,38.4,30.23,WNW,293,0.0,0.0,84,0.00,,,0.00,WUHU216HW,2013-10-29 15:17:00,
2013-10-29 11:22:00,43.3,38.8,30.24,WNW,293,0.0,0.0,84,0.00,,,0.00,WUHU216HW,2013-10-29 15:22:00,
2013-10-29 11:27:00,43.7,39.1,30.23,WNW,293,0.0,0.0,84,0.00,,,0.00,WUHU216HW,2013-10-29 15:27:00,
2013-10-29 11:33:00,44.0,39.5,30.24,WNW,293,0.0,0.0,84,0.00,,,0.00,WUHU216HW,2013-10-29 15:33:00,
2013-10-29 11:38:00,44.2,39.3,30.24,WNW,293,0.0,0.0,83,0.00,,,0.00,WUHU216HW,2013-10-29 15:38:00,
2013-10-29 11:43:00,44.6,39.7,30.24,WNW,293,0.0,0.0,83,0.00,,,0.00,WUHU216HW,2013-10-29 15:43:00,
2013-10-29 11:48:00,44.9,40.1,30.24,WNW,293,0.0,0.0,83,0.00,,,0.00,WUHU216HW,2013-10-29 15:48:00,
2013-10-29 11:53:00,44.9,40.1,30.24,WNW,293,0.0,0.0,83,0.00,,,0.00,WUHU216HW,2013-10-29 15:53:00,
2013-10-29 11:58:00,45.1,39.9,30.24,WNW,293,0.0,0.0,82,0.00,,,0.00,WUHU216HW,2013-10-29 15:58:00,
2013-10-29 12:03:00,45.5,40.6,30.23,WNW,293,0.0,0.0,83,0.00,,,0.00,WUHU216HW,2013-10-29 16:03:00,
2013-10-29 12:08:00,45.6,40.5,30.24,WNW,293,0.0,0.0,82,0.00,,,0.00,WUHU216HW,2013-10-29 16:08:00,
2013-10-29 12:13:00,46.0,40.8,30.23,WNW,293,0.0,0.0,82,0.00,,,0.00,WUHU216HW,2013-10-29 16:13:00,
2013-10-29 12:18:00,46.2,41.0,30.23,WNW,293,0.0,0.0,82,0.00,,,0.00,WUHU216HW,2013-10-29 16:18:00,
2013-10-29 12:23:00,46.5,41.1,30.23,WNW,293,0.0,0.0,81,0.00,,,0.00,WUHU216HW,2013-10-29 16:23:00,
2013-10-29 12:28:00,46.5,41.1,30.23,WNW,293,0.0,0.0,81,0.00,,,0.00,WUHU216HW,2013-10-29 16:28:00,
2013-10-29 12:33:00,46.9,41.4,30.22,WNW,293,0.0,0.0,81,0.00,,,0.00,WUHU216HW,2013-10-29 16:33:00,
2013-10-29 12:38:00,47.1,41.5,30.22,WNW,293,0.0,0.0,81,0.00,,,0.00,WUHU216HW,2013-10-29 16:38:00,
2013-10-29 12:43:00,47.4,41.9,30.22,WNW,293,0.0,0.0,81,0.00,,,0.00,WUHU216HW,2013-10-29 16:43:00,
2013-10-29 12:48:00,47.8,42.2,30.22,WNW,293,0.0,0.0,80,0.00,,,0.00,WUHU216HW,2013-10-29 16:48:00,
2013-10-29 12:53:00,48.0,42.4,30.22,South,180,0.0,0.0,81,0.00,,,0.00,WUHU216HW,2013-10-29 16:53:00,
2013-10-29 12:58:00,48.2,42.2,30.22,South,180,0.0,0.0,80,0.00,,,0.00,WUHU216HW,2013-10-29 16:58:00,
2013-10-29 13:03:00,48.3,42.4,30.22,South,180,0.0,0.0,80,0.00,,,0.00,WUHU216HW,2013-10-29 17:03:00,
2013-10-29 13:08:00,48.5,42.6,30.21,South,180,0.0,0.0,80,0.00,,,0.00,WUHU216HW,2013-10-29 17:08:00,
2013-10-29 13:13:00,48.9,42.9,30.21,South,180,0.0,0.0,80,0.00,,,0.00,WUHU216HW,2013-10-29 17:13:00,
2013-10-29 13:18:00,49.1,43.1,30.21,South,180,0.0,0.0,80,0.00,,,0.00,WUHU216HW,2013-10-29 17:18:00,
2013-10-29 13:23:00,49.2,43.3,30.20,South,180,0.0,0.0,80,0.00,,,0.00,WUHU216HW,2013-10-29 17:23:00,
2013-10-29 13:28:00,49.2,43.3,30.19,South,180,0.0,0.0,80,0.00,,,0.00,WUHU216HW,2013-10-29 17:28:00,
2013-10-29 13:33:00,49.6,43.7,30.19,South,180,0.0,0.0,80,0.00,,,0.00,WUHU216HW,2013-10-29 17:33:00,
2013-10-29 13:38:00,49.6,43.7,30.19,South,180,0.0,0.0,80,0.00,,,0.00,WUHU216HW,2013-10-29 17:38:00,
2013-10-29 13:43:00,49.8,43.8,30.19,NW,315,0.0,0.0,80,0.00,,,0.00,WUHU216HW,2013-10-29 17:43:00,
2013-10-29 13:48:00,50.1,43.8,30.18,NW,315,0.0,0.0,79,0.00,,,0.00,WUHU216HW,2013-10-29 17:48:00,
2013-10-29 13:53:00,50.3,44.0,30.18,NW,315,0.0,0.0,79,0.00,,,0.00,WUHU216HW,2013-10-29 17:53:00,
2013-10-29 13:58:00,50.5,44.2,30.18,NW,315,0.0,0.0,79,0.00,,,0.00,WUHU216HW,2013-10-29 17:58:00,
2013-10-29 14:03:00,50.7,44.4,30.18,NW,315,0.0,0.0,79,0.00,,,0.00,WUHU216HW,2013-10-29 18:03:00,
2013-10-29 14:08:00,50.9,44.6,30.18,NW,315,0.0,0.0,79,0.00,,,0.00,WUHU216HW,2013-10-29 18:08:00,
2013-10-29 14:13:00,51.0,44.7,30.18,NW,315,0.0,0.0,79,0.00,,,0.00,WUHU216HW,2013-10-29 18:13:00,
2013-10-29 14:18:00,51.0,44.7,30.17,NW,315,0.0,0.0,79,0.00,,,0.00,WUHU216HW,2013-10-29 18:18:00,
2013-10-29 14:23:00,51.4,45.1,30.16,SSE,158,0.0,0.0,79,0.00,,,0.00,WUHU216HW,2013-10-29 18:23:00,
2013-10-29 14:28:00,51.6,45.3,30.17,SSE,158,0.0,0.0,79,0.00,,,0.00,WUHU216HW,2013-10-29 18:28:00,
2013-10-29 14:33:00,51.6,45.3,30.16,SSE,158,0.0,0.0,79,0.00,,,0.00,WUHU216HW,2013-10-29 18:33:00,
2013-10-29 14:38:00,51.8,45.5,30.16,SSE,158,0.0,0.0,79,0.00,,,0.00,WUHU216HW,2013-10-29 18:38:00,
2013-10-29 14:43:00,51.9,45.6,30.16,SSE,158,0.0,0.0,79,0.00,,,0.00,WUHU216HW,2013-10-29 18:43:00,
2013-10-29 14:48:00,52.1,45.5,30.16,SE,135,0.0,0.0,78,0.00,,,0.00,WUHU216HW,2013-10-29 18:48:00,
2013-10-29 14:53:00,52.3,45.6,30.16,ESE,113,0.0,0.0,78,0.00,,,0.00,WUHU216HW,2013-10-29 18:53:00,
2013-10-29 14:58:00,52.3,45.6,30.16,East,90,0.0,0.0,78,0.00,,,0.00,WUHU216HW,2013-10-29 18:58:00,
2013-10-29 15:03:00,52.3,45.6,30.16,East,90,0.0,0.0,78,0.00,,,0.00,WUHU216HW,2013-10-29 19:03:00,
2013-10-29 15:08:00,52.5,45.8,30.16,East,90,0.0,0.0,78,0.00,,,0.00,WUHU216HW,2013-10-29 19:08:00,
2013-10-29 15:13:00,52.7,46.0,30.15,East,90,0.0,0.0,78,0.00,,,0.00,WUHU216HW,2013-10-29 19:13:00,
2013-10-29 15:18:00,52.7,46.0,30.15,East,90,0.0,0.0,78,0.00,,,0.00,WUHU216HW,2013-10-29 19:18:00,
2013-10-29 15:23:00,52.7,46.0,30.15,East,90,0.0,0.0,78,0.00,,,0.00,WUHU216HW,2013-10-29 19:23:00,
2013-10-29 15:28:00,52.7,46.0,30.15,East,90,0.0,0.0,78,0.00,,,0.00,WUHU216HW,2013-10-29 19:28:00,
2013-10-29 15:33:00,52.8,46.2,30.14,East,90,0.0,0.0,78,0.00,,,0.00,WUHU216HW,2013-10-29 19:33:00,
2013-10-29 15:38:00,52.8,46.2,30.14,East,90,0.0,0.0,78,0.00,,,0.00,WUHU216HW,2013-10-29 19:38:00,
2013-10-29 15:43:00,52.8,46.2,30.14,ENE,68,0.0,0.0,78,0.00,,,0.00,WUHU216HW,2013-10-29 19:43:00,
2013-10-29 15:48:00,52.8,46.2,30.14,ENE,68,0.0,0.0,78,0.00,,,0.00,WUHU216HW,2013-10-29 19:48:00,
2013-10-29 15:53:00,53.2,46.5,30.13,ENE,68,0.0,0.0,78,0.00,,,0.00,WUHU216HW,2013-10-29 19:53:00,
2013-10-29 15:58:00,53.2,46.5,30.13,ENE,68,0.0,0.0,78,0.00,,,0.00,WUHU216HW,2013-10-29 19:58:00,
2013-10-29 16:03:00,53.2,46.5,30.13,ENE,68,0.0,0.0,78,0.00,,,0.00,WUHU216HW,2013-10-29 20:03:00,
2013-10-29 16:08:00,53.4,46.7,30.12,ENE,68,0.0,0.0,78,0.00,,,0.00,WUHU216HW,2013-10-29 20:08:00,
2013-10-29 16:13:00,53.4,46.7,30.11,ENE,68,0.0,0.0,78,0.00,,,0.00,WUHU216HW,2013-10-29 20:13:00,
2013-10-29 16:18:00,53.4,46.7,30.11,ENE,68,0.0,0.0,78,0.00,,,0.00,WUHU216HW,2013-10-29 20:18:00,
2013-10-29 16:23:00,53.4,46.7,30.11,East,90,0.0,0.0,78,0.00,,,0.00,WUHU216HW,2013-10-29 20:23:00,
2013-10-29 16:28:00,53.4,46.7,30.11,ENE,68,0.0,0.0,78,0.00,,,0.00,WUHU216HW,2013-10-29 20:28:00,
2013-10-29 16:33:00,53.6,46.9,30.11,ENE,68,0.0,0.0,78,0.00,,,0.00,WUHU216HW,2013-10-29 20:33:00,
2013-10-29 16:38:00,53.7,47.1,30.10,ENE,68,0.0,0.0,78,0.00,,,0.00,WUHU216HW,2013-10-29 20:38:00,
2013-10-29 16:43:00,53.7,47.1,30.10,ESE,113,0.0,0.0,78,0.00,,,0.00,WUHU216HW,2013-10-29 20:43:00,
2013-10-29 16:48:00,53.7,47.1,30.10,ESE,113,0.0,0.0,78,0.00,,,0.00,WUHU216HW,2013-10-29 20:48:00,
2013-10-29 16:53:00,53.7,47.1,30.10,ESE,113,0.0,0.0,78,0.00,,,0.00,WUHU216HW,2013-10-29 20:53:00,
2013-10-29 16:58:00,53.7,47.1,30.10,ESE,113,0.0,0.0,78,0.00,,,0.00,WUHU216HW,2013-10-29 20:58:00,
2013-10-29 17:03:00,53.7,47.4,30.10,East,90,0.0,0.0,79,0.00,,,0.00,WUHU216HW,2013-10-29 21:03:00,
2013-10-29 17:08:00,53.7,47.4,30.10,East,90,0.0,0.0,79,0.00,,,0.00,WUHU216HW,2013-10-29 21:08:00,
2013-10-29 17:13:00,53.7,47.4,30.10,East,90,0.0,0.0,79,0.00,,,0.00,WUHU216HW,2013-10-29 21:13:00,
2013-10-29 17:18:00,53.4,47.1,30.10,East,90,0.0,0.0,79,0.00,,,0.00,WUHU216HW,2013-10-29 21:18:00,
2013-10-29 17:23:00,53.6,47.3,30.10,East,90,0.0,0.0,79,0.00,,,0.00,WUHU216HW,2013-10-29 21:23:00,
2013-10-29 17:28:00,53.4,47.1,30.10,East,90,0.0,0.0,79,0.00,,,0.00,WUHU216HW,2013-10-29 21:28:00,
2013-10-29 17:33:00,53.4,47.1,30.10,East,90,0.0,0.0,79,0.00,,,0.00,WUHU216HW,2013-10-29 21:33:00,
2013-10-29 17:38:00,53.4,47.1,30.09,East,90,0.0,0.0,79,0.00,,,0.00,WUHU216HW,2013-10-29 21:38:00,
2013-10-29 17:43:00,53.4,47.1,30.09,East,90,0.0,0.0,79,0.00,,,0.00,WUHU216HW,2013-10-29 21:43:00,
2013-10-29 17:48:00,53.4,47.1,30.10,East,90,0.0,0.0,79,0.00,,,0.00,WUHU216HW,2013-10-29 21:48:00,
2013-10-29 17:53:00,53.4,47.1,30.10,East,90,0.0,0.0,79,0.00,,,0.00,WUHU216HW,2013-10-29 21:53:00,
2013-10-29 17:58:00,53.4,47.1,30.10,East,90,0.0,0.0,79,0.00,,,0.00,WUHU216HW,2013-10-29 21:58:00,
2013-10-29 18:03:00,53.4,47.1,30.09,ESE,113,0.0,0.0,79,0.00,,,0.00,WUHU216HW,2013-10-29 22:03:00,
2013-10-29 18:08:00,53.4,47.1,30.09,ESE,113,0.0,0.0,79,0.00,,,0.00,WUHU216HW,2013-10-29 22:08:00,
2013-10-29 18:13:00,53.4,47.1,30.10,East,90,0.0,0.0,79,0.00,,,0.00,WUHU216HW,2013-10-29 22:13:00,
2013-10-29 18:18:00,53.4,47.1,30.10,ESE,113,0.0,0.0,79,0.00,,,0.00,WUHU216HW,2013-10-29 22:18:00,
2013-10-29 18:23:00,53.4,47.1,30.10,ESE,113,0.0,0.0,79,0.00,,,0.00,WUHU216HW,2013-10-29 22:23:00,
2013-10-29 18:28:00,53.2,46.9,30.10,ESE,113,0.0,0.0,79,0.00,,,0.00,WUHU216HW,2013-10-29 22:28:00,
2013-10-29 18:33:00,53.2,47.3,30.11,East,90,0.0,0.0,80,0.00,,,0.00,WUHU216HW,2013-10-29 22:33:00,
2013-10-29 18:38:00,53.2,47.3,30.11,East,90,0.0,0.0,80,0.00,,,0.00,WUHU216HW,2013-10-29 22:38:00,
2013-10-29 18:43:00,52.8,46.9,30.11,ESE,113,0.0,0.0,80,0.00,,,0.00,WUHU216HW,2013-10-29 22:43:00,
2013-10-29 18:48:00,52.8,46.9,30.11,ESE,113,0.0,0.0,80,0.00,,,0.00,WUHU216HW,2013-10-29 22:48:00,
2013-10-29 18:53:00,52.8,46.9,30.10,ESE,113,0.0,0.0,80,0.00,,,0.00,WUHU216HW,2013-10-29 22:53:00,
2013-10-29 18:58:00,52.8,46.9,30.10,ESE,113,0.0,0.0,80,0.00,,,0.00,WUHU216HW,2013-10-29 22:58:00,
2013-10-29 19:03:00,52.7,46.7,30.10,ESE,113,0.0,0.0,80,0.00,,,0.00,WUHU216HW,2013-10-29 23:03:00,
2013-10-29 19:08:00,52.7,46.7,30.09,East,90,0.0,0.0,80,0.00,,,0.00,WUHU216HW,2013-10-29 23:08:00,
2013-10-29 19:13:00,52.7,46.7,30.10,East,90,0.0,0.0,80,0.00,,,0.00,WUHU216HW,2013-10-29 23:13:00,
2013-10-29 19:18:00,52.5,46.5,30.10,East,90,0.0,0.0,80,0.00,,,0.00,WUHU216HW,2013-10-29 23:18:00,
2013-10-29 19:23:00,52.5,46.5,30.10,East,90,0.0,0.0,80,0.00,,,0.00,WUHU216HW,2013-10-29 23:23:00,
2013-10-29 19:28:00,52.5,46.5,30.10,East,90,0.0,0.0,80,0.00,,,0.00,WUHU216HW,2013-10-29 23:28:00,
2013-10-29 19:33:00,52.5,46.5,30.10,ENE,68,0.0,0.0,80,0.00,,,0.00,WUHU216HW,2013-10-29 23:33:00,
2013-10-29 19:38:00,52.5,46.5,30.10,ENE,68,0.0,0.0,80,0.00,,,0.00,WUHU216HW,2013-10-29 23:38:00,
2013-10-29 19:43:00,52.3,46.4,30.10,ENE,68,0.0,0.0,80,0.00,,,0.00,WUHU216HW,2013-10-29 23:43:00,
2013-10-29 19:48:00,52.3,46.4,30.11,ENE,68,0.0,0.0,80,0.00,,,0.00,WUHU216HW,2013-10-29 23:48:00,
2013-10-29 19:53:00,52.3,46.4,30.11,ENE,68,0.0,0.0,80,0.00,,,0.00,WUHU216HW,2013-10-29 23:53:00,
2013-10-29 19:58:00,52.3,46.4,30.11,ENE,68,0.0,0.0,80,0.00,,,0.00,WUHU216HW,2013-10-29 23:58:00,
2013-10-29 20:03:00,52.1,46.5,30.11,ENE,68,0.0,0.0,81,0.00,,,0.00,WUHU216HW,2013-10-30 00:03:00,
2013-10-29 20:08:00,52.1,46.5,30.11,ENE,68,0.0,0.0,81,0.00,,,0.00,WUHU216HW,2013-10-30 00:08:00,
2013-10-29 20:13:00,51.9,46.3,30.11,East,90,0.0,0.0,81,0.00,,,0.00,WUHU216HW,2013-10-30 00:13:00,
2013-10-29 20:18:00,51.9,46.3,30.12,East,90,0.0,0.0,81,0.00,,,0.00,WUHU216HW,2013-10-30 00:18:00,
2013-10-29 20:23:00,51.9,46.3,30.12,East,90,0.0,0.0,81,0.00,,,0.00,WUHU216HW,2013-10-30 00:23:00,
2013-10-29 20:28:00,51.8,46.1,30.11,ENE,68,0.0,0.0,81,0.00,,,0.00,WUHU216HW,2013-10-30 00:28:00,
2013-10-29 20:33:00,51.8,46.1,30.11,East,90,0.0,0.0,81,0.00,,,0.00,WUHU216HW,2013-10-30 00:33:00,
2013-10-29 20:38:00,51.8,46.1,30.12,ENE,68,0.0,0.0,81,0.00,,,0.00,WUHU216HW,2013-10-30 00:38:00,
2013-10-29 20:43:00,51.6,45.9,30.12,East,90,0.0,0.0,81,0.00,,,0.00,WUHU216HW,2013-10-30 00:43:00,
2013-10-29 20:48:00,51.6,45.9,30.11,East,90,0.0,0.0,81,0.00,,,0.00,WUHU216HW,2013-10-30 00:48:00,
2013-10-29 20:53:00,51.6,45.9,30.11,East,90,0.0,0.0,81,0.00,,,0.00,WUHU216HW,2013-10-30 00:53:00,
2013-10-29 20:58:00,51.6,45.9,30.11,ENE,68,0.0,0.0,81,0.00,,,0.00,WUHU216HW,2013-10-30 00:58:00,
2013-10-29 21:03:00,51.6,45.9,30.11,East,90,0.0,0.0,81,0.00,,,0.00,WUHU216HW,2013-10-30 01:03:00,
2013-10-29 21:08:00,51.4,45.9,30.11,East,90,0.0,0.0,82,0.00,,,0.00,WUHU216HW,2013-10-30 01:08:00,
2013-10-29 21:13:00,51.4,46.1,30.12,East,90,0.0,0.0,82,0.00,,,0.00,WUHU216HW,2013-10-30 01:13:00,
2013-10-29 21:18:00,51.4,46.1,30.11,East,90,0.0,0.0,82,0.00,,,0.00,WUHU216HW,2013-10-30 01:18:00,
2013-10-29 21:23:00,51.4,46.1,30.11,East,90,0.0,0.0,82,0.00,,,0.00,WUHU216HW,2013-10-30 01:23:00,
2013-10-29 21:28:00,51.4,46.1,30.11,East,90,0.0,0.0,82,0.00,,,0.00,WUHU216HW,2013-10-30 01:28:00,
2013-10-29 21:33:00,51.2,45.9,30.11,East,90,0.0,0.0,82,0.00,,,0.00,WUHU216HW,2013-10-30 01:33:00,
2013-10-29 21:38:00,51.0,45.7,30.11,East,90,0.0,0.0,82,0.00,,,0.00,WUHU216HW,2013-10-30 01:38:00,
2013-10-29 21:43:00,51.0,45.7,30.11,East,90,0.0,0.0,82,0.00,,,0.00,WUHU216HW,2013-10-30 01:43:00,
2013-10-29 21:49:00,50.9,45.8,30.11,East,90,0.0,0.0,83,0.00,,,0.00,WUHU216HW,2013-10-30 01:49:00,
2013-10-29 21:54:00,50.9,45.8,30.10,East,90,0.0,0.0,83,0.02,,,0.02,WUHU216HW,2013-10-30 01:54:00,
2013-10-29 21:59:00,50.9,45.8,30.10,East,90,0.0,0.0,83,0.02,,,0.02,WUHU216HW,2013-10-30 01:59:00,
2013-10-29 22:04:00,50.7,45.6,30.10,East,90,0.0,0.0,83,0.02,,,0.02,WUHU216HW,2013-10-30 02:04:00,
2013-10-29 22:09:00,50.7,46.0,30.10,East,90,0.0,0.0,84,0.02,,,0.02,WUHU216HW,2013-10-30 02:09:00,
2013-10-29 22:14:00,50.7,46.0,30.10,East,90,0.0,0.0,84,0.02,,,0.02,WUHU216HW,2013-10-30 02:14:00,
2013-10-29 22:19:00,50.7,46.0,30.09,East,90,0.0,0.0,84,0.04,,,0.04,WUHU216HW,2013-10-30 02:19:00,
2013-10-29 22:24:00,50.7,46.0,30.09,East,90,0.0,0.0,84,0.04,,,0.04,WUHU216HW,2013-10-30 02:24:00,
2013-10-29 22:29:00,50.7,46.0,30.09,East,90,0.0,0.0,84,0.04,,,0.04,WUHU216HW,2013-10-30 02:29:00,
2013-10-29 22:34:00,50.7,46.3,30.09,East,90,0.0,0.0,85,0.04,,,0.04,WUHU216HW,2013-10-30 02:34:00,
2013-10-29 22:39:00,50.7,46.3,30.09,East,90,0.0,0.0,85,0.04,,,0.04,WUHU216HW,2013-10-30 02:39:00,
2013-10-29 22:44:00,50.7,46.3,30.09,East,90,0.0,0.0,85,0.04,,,0.04,WUHU216HW,2013-10-30 02:44:00,
2013-10-29 22:49:00,50.7,46.3,30.09,East,90,0.0,0.0,85,0.04,,,0.04,WUHU216HW,2013-10-30 02:49:00,
2013-10-29 22:54:00,50.7,46.3,30.09,East,90,0.0,0.0,85,0.02,,,0.04,WUHU216HW,2013-10-30 02:54:00,
2013-10-29 22:59:00,50.7,46.3,30.09,East,90,0.0,0.0,85,0.02,,,0.04,WUHU216HW,2013-10-30 02:59:00,
2013-10-29 23:04:00,50.7,46.3,30.09,East,90,0.0,0.0,85,0.02,,,0.04,WUHU216HW,2013-10-30 03:04:00,
2013-10-29 23:09:00,50.7,46.3,30.09,East,90,0.0,0.0,85,0.02,,,0.04,WUHU216HW,2013-10-30 03:09:00,
2013-10-29 23:14:00,50.7,46.3,30.09,East,90,0.0,0.0,85,0.02,,,0.04,WUHU216HW,2013-10-30 03:14:00,
2013-10-29 23:19:00,50.7,46.3,30.09,East,90,0.0,0.0,85,0.00,,,0.04,WUHU216HW,2013-10-30 03:19:00,
2013-10-29 23:24:00,50.7,46.3,30.08,East,90,0.0,0.0,85,0.00,,,0.04,WUHU216HW,2013-10-30 03:24:00,
2013-10-29 23:29:00,50.7,46.3,30.07,East,90,0.0,0.0,85,0.00,,,0.04,WUHU216HW,2013-10-30 03:29:00,
2013-10-29 23:34:00,50.7,46.3,30.07,East,90,0.0,0.0,85,0.00,,,0.04,WUHU216HW,2013-10-30 03:34:00,
2013-10-29 23:39:00,50.7,46.3,30.07,ENE,68,0.0,0.0,85,0.00,,,0.04,WUHU216HW,2013-10-30 03:39:00,
2013-10-29 23:44:00,50.7,46.3,30.07,East,90,0.0,0.0,85,0.02,,,0.04,WUHU216HW,2013-10-30 03:44:00,
2013-10-29 23:49:00,50.7,46.3,30.08,East,90,0.0,0.0,85,0.02,,,0.06,WUHU216HW,2013-10-30 03:49:00,
2013-10-29 23:54:00,50.7,46.6,30.07,East,90,0.0,0.0,86,0.02,,,0.06,WUHU216HW,2013-10-30 03:54:00,
2013-10-29 23:59:00,50.9,46.7,30.07,East,90,0.0,0.0,86,0.02,,,0.06,WUHU216HW,2013-10-30 03:59:00,